Sirapinar IV — TCA4850 — position and weather

sailwx.info

Track history (hours):
 
Tides and Currents Weather Stations Pressure Air Temp Water Temp Dewpoint Dewpoint Depression Visibility Wind Speed Wind Dir Waves Ship Positions

Sirapinar IV

Last reported at 2018-Apr-21 16:17 UTC. Time now 2018-Jun-19 06:59 UTC.
Position N 39°18' W 009°44'.
Warning: this ship's position is 58 days out of date.

Length 22 m; draft 4.8 m.

Type: Tug. MMSI: 271045733.

Date/timePositionNaut miles runAvg speedWind from/ knotsBaromVisibWave heightAir tempDewpointWater temp
2018-Apr-21 16:17N 39°18' W 009°44'3 9.5
2018-Apr-21 15:56N 39°15' W 009°45'4 9.7
2018-Apr-21 15:31N 39°11' W 009°46'5 9.5
2018-Apr-21 15:00N 39°06' W 009°47'5 9.5
2018-Apr-21 14:29N 39°02' W 009°49'5 9.7
2018-Apr-21 13:58N 38°57' W 009°50'4 9.5
2018-Apr-21 13:30N 38°52' W 009°51'5 9.4
2018-Apr-21 13:01N 38°48' W 009°51'5 9.5
2018-Apr-21 12:31N 38°43' W 009°51'5 9.1
2018-Apr-21 12:00N 38°38' W 009°50'5 9.4
2018-Apr-21 11:30N 38°34' W 009°49'5 9.5
2018-Apr-21 11:00N 38°29' W 009°47'5 9.6
2018-Apr-21 10:30N 38°25' W 009°45'5 9.4
2018-Apr-21 10:00N 38°20' W 009°44'6 9.4
2018-Apr-21 09:23N 38°14' W 009°43'8 9.2
2018-Apr-21 08:30N 38°06' W 009°40'4 9.0
2018-Apr-21 08:00N 38°02' W 009°39'13 9.0
2018-Apr-21 06:36N 37°50' W 009°36'1 8.9
2018-Apr-21 06:28N 37°48' W 009°36'220 8.3
2018-Apr-20 04:01N 35°58' W 005°38'010.3
2018-Apr-20 04:00N 35°58' W 005°38'5 9.7
2018-Apr-20 03:30N 35°59' W 005°32'5 9.2
2018-Apr-20 03:00N 36°00' W 005°27'5 9.1
2018-Apr-20 02:31N 36°02' W 005°21'4 8.9
2018-Apr-20 02:00N 36°03' W 005°16'276 8.8
2018-Apr-18 18:44N 36°29' E 000°25'510.3
2018-Apr-18 18:14N 36°29' E 000°31'210.3
2018-Apr-18 18:00N 36°29' E 000°34'510.3
2018-Apr-18 17:30N 36°29' E 000°40'510.5
2018-Apr-18 17:00N 36°29' E 000°47'910.7
2018-Apr-18 16:12N 36°30' E 000°58'210.8
2018-Apr-18 16:00N 36°31' E 001°00'610.7
2018-Apr-18 15:26N 36°33' E 001°07'  
2018-Apr-15 20:27N 38°16' E 012°57'6 9.9
2018-Apr-15 19:50N 38°16' E 013°05'3 9.9
2018-Apr-15 19:30N 38°16' E 013°09'5 9.7
2018-Apr-15 19:00N 38°17' E 013°15'5 9.4
2018-Apr-15 18:30N 38°17' E 013°21'5 9.1
2018-Apr-15 18:00N 38°17' E 013°26'4 9.0
2018-Apr-15 17:31N 38°17' E 013°32'4 8.8
2018-Apr-15 17:00N 38°17' E 013°38'4 8.8
2018-Apr-15 16:30N 38°17' E 013°43'4 8.9
2018-Apr-15 16:00N 38°17' E 013°49'4 9.0
2018-Apr-15 15:30N 38°17' E 013°55'40 9.0
2018-Apr-15 11:07N 38°18' E 014°45'2 9.0
2018-Apr-15 10:53N 38°18' E 014°48'4 9.0
2018-Apr-15 10:27N 38°18' E 014°53'4 9.0
2018-Apr-15 10:00N 38°18' E 014°58'4 8.9
2018-Apr-15 09:30N 38°18' E 015°04'4 8.8
2018-Apr-15 09:00N 38°18' E 015°09'4 9.0
2018-Apr-15 08:30N 38°18' E 015°15'5 9.1
2018-Apr-15 08:00N 38°19' E 015°21'5 9.2
2018-Apr-15 07:31N 38°19' E 015°26'5 9.1
2018-Apr-15 07:00N 38°20' E 015°32'4 8.8
2018-Apr-15 06:30N 38°19' E 015°38'4 7.5
2018-Apr-15 06:00N 38°16' E 015°41'4 8.7
2018-Apr-15 05:30N 38°14' E 015°37'5 9.5
2018-Apr-15 04:58N 38°08' E 015°36'4 8.6
2018-Apr-15 04:30N 38°05' E 015°36'4 8.5
2018-Apr-15 04:00N 38°00' E 015°35'4 8.5
2018-Apr-15 03:30N 37°57' E 015°38'4 8.6
2018-Apr-15 03:00N 37°54' E 015°42'5 9.1
2018-Apr-15 02:24N 37°52' E 015°49'326 9.0
2018-Apr-13 14:15N 38°06' E 022°42'2 9.5
2018-Apr-13 14:00N 38°05' E 022°44'5 9.4
2018-Apr-13 13:30N 38°02' E 022°49'5 9.3
2018-Apr-13 13:00N 37°59' E 022°53'4 8.9
2018-Apr-13 12:30N 37°57' E 022°58'3 5.5
2018-Apr-13 12:00N 37°55' E 023°01'0 0.0
2018-Apr-13 11:30N 37°55' E 023°01'2 3.7
2018-Apr-13 11:01N 37°54' E 023°03'5 9.4
2018-Apr-13 10:30N 37°53' E 023°08'5 9.4
2018-Apr-13 10:01N 37°53' E 023°14'5 9.4
2018-Apr-13 09:30N 37°52' E 023°20'5 9.3
2018-Apr-13 09:00N 37°51' E 023°26'5 9.2
2018-Apr-13 08:30N 37°50' E 023°32'5 9.2
2018-Apr-13 08:00N 37°51' E 023°38'4 8.7
2018-Apr-13 07:30N 37°47' E 023°41'5 9.2
2018-Apr-13 07:00N 37°43' E 023°44'  
Track history (hours):
 
Tides and Currents Weather Stations Pressure Air Temp Water Temp Dewpoint Dewpoint Depression Visibility Wind Speed Wind Dir Waves Ship Positions

Sirapinar IV

Last reported at 2018-Apr-21 16:17 UTC. Time now 2018-Jun-19 06:59 UTC.
Position N 39°18' W 009°44'.
Warning: this ship's position is 58 days out of date.

Length 22 m; draft 4.8 m.

Type: Tug. MMSI: 271045733.

Date/timePositionNaut miles runAvg speedWind from/ knotsBaromVisibWave heightAir tempDewpointWater temp
2018-Apr-21 16:17N 39°18' W 009°44'3 9.5
2018-Apr-21 15:56N 39°15' W 009°45'4 9.7
2018-Apr-21 15:31N 39°11' W 009°46'5 9.5
2018-Apr-21 15:00N 39°06' W 009°47'5 9.5
2018-Apr-21 14:29N 39°02' W 009°49'5 9.7
2018-Apr-21 13:58N 38°57' W 009°50'4 9.5
2018-Apr-21 13:30N 38°52' W 009°51'5 9.4
2018-Apr-21 13:01N 38°48' W 009°51'5 9.5
2018-Apr-21 12:31N 38°43' W 009°51'5 9.1
2018-Apr-21 12:00N 38°38' W 009°50'5 9.4
2018-Apr-21 11:30N 38°34' W 009°49'5 9.5
2018-Apr-21 11:00N 38°29' W 009°47'5 9.6
2018-Apr-21 10:30N 38°25' W 009°45'5 9.4
2018-Apr-21 10:00N 38°20' W 009°44'6 9.4
2018-Apr-21 09:23N 38°14' W 009°43'8 9.2
2018-Apr-21 08:30N 38°06' W 009°40'4 9.0
2018-Apr-21 08:00N 38°02' W 009°39'13 9.0
2018-Apr-21 06:36N 37°50' W 009°36'1 8.9
2018-Apr-21 06:28N 37°48' W 009°36'220 8.3
2018-Apr-20 04:01N 35°58' W 005°38'010.3
2018-Apr-20 04:00N 35°58' W 005°38'5 9.7
2018-Apr-20 03:30N 35°59' W 005°32'5 9.2
2018-Apr-20 03:00N 36°00' W 005°27'5 9.1
2018-Apr-20 02:31N 36°02' W 005°21'4 8.9
2018-Apr-20 02:00N 36°03' W 005°16'276 8.8
2018-Apr-18 18:44N 36°29' E 000°25'510.3
2018-Apr-18 18:14N 36°29' E 000°31'210.3
2018-Apr-18 18:00N 36°29' E 000°34'510.3
2018-Apr-18 17:30N 36°29' E 000°40'510.5
2018-Apr-18 17:00N 36°29' E 000°47'910.7
2018-Apr-18 16:12N 36°30' E 000°58'210.8
2018-Apr-18 16:00N 36°31' E 001°00'610.7
2018-Apr-18 15:26N 36°33' E 001°07'  
2018-Apr-15 20:27N 38°16' E 012°57'6 9.9
2018-Apr-15 19:50N 38°16' E 013°05'3 9.9
2018-Apr-15 19:30N 38°16' E 013°09'5 9.7
2018-Apr-15 19:00N 38°17' E 013°15'5 9.4
2018-Apr-15 18:30N 38°17' E 013°21'5 9.1
2018-Apr-15 18:00N 38°17' E 013°26'4 9.0
2018-Apr-15 17:31N 38°17' E 013°32'4 8.8
2018-Apr-15 17:00N 38°17' E 013°38'4 8.8
2018-Apr-15 16:30N 38°17' E 013°43'4 8.9
2018-Apr-15 16:00N 38°17' E 013°49'4 9.0
2018-Apr-15 15:30N 38°17' E 013°55'40 9.0
2018-Apr-15 11:07N 38°18' E 014°45'2 9.0
2018-Apr-15 10:53N 38°18' E 014°48'4 9.0
2018-Apr-15 10:27N 38°18' E 014°53'4 9.0
2018-Apr-15 10:00N 38°18' E 014°58'4 8.9
2018-Apr-15 09:30N 38°18' E 015°04'4 8.8
2018-Apr-15 09:00N 38°18' E 015°09'4 9.0
2018-Apr-15 08:30N 38°18' E 015°15'5 9.1
2018-Apr-15 08:00N 38°19' E 015°21'5 9.2
2018-Apr-15 07:31N 38°19' E 015°26'5 9.1
2018-Apr-15 07:00N 38°20' E 015°32'4 8.8
2018-Apr-15 06:30N 38°19' E 015°38'4 7.5
2018-Apr-15 06:00N 38°16' E 015°41'4 8.7
2018-Apr-15 05:30N 38°14' E 015°37'5 9.5
2018-Apr-15 04:58N 38°08' E 015°36'4 8.6
2018-Apr-15 04:30N 38°05' E 015°36'4 8.5
2018-Apr-15 04:00N 38°00' E 015°35'4 8.5
2018-Apr-15 03:30N 37°57' E 015°38'4 8.6
2018-Apr-15 03:00N 37°54' E 015°42'5 9.1
2018-Apr-15 02:24N 37°52' E 015°49'326 9.0
2018-Apr-13 14:15N 38°06' E 022°42'2 9.5
2018-Apr-13 14:00N 38°05' E 022°44'5 9.4
2018-Apr-13 13:30N 38°02' E 022°49'5 9.3
2018-Apr-13 13:00N 37°59' E 022°53'4 8.9
2018-Apr-13 12:30N 37°57' E 022°58'3 5.5
2018-Apr-13 12:00N 37°55' E 023°01'0 0.0
2018-Apr-13 11:30N 37°55' E 023°01'2 3.7
2018-Apr-13 11:01N 37°54' E 023°03'5 9.4
2018-Apr-13 10:30N 37°53' E 023°08'5 9.4
2018-Apr-13 10:01N 37°53' E 023°14'5 9.4
2018-Apr-13 09:30N 37°52' E 023°20'5 9.3
2018-Apr-13 09:00N 37°51' E 023°26'5 9.2
2018-Apr-13 08:30N 37°50' E 023°32'5 9.2
2018-Apr-13 08:00N 37°51' E 023°38'4 8.7
2018-Apr-13 07:30N 37°47' E 023°41'5 9.2
2018-Apr-13 07:00N 37°43' E 023°44'  

Dump ship's entire track history